Time;durP1;ratioP1;P1;durP2;ratioP2;P2;SDS_P1;SDS_P2;PMS_P1;PMS_P2;Temp;Humidity;BMP_temperature;BMP_pressure;BME280_temperature;BME280_humidity;BME280_pressure;Samples;Min_cycle;Max_cycle;Signal;HPM_P1;HPM_P2
2024/04/14 00:03:19;;;;;;;21.30;15.90;;;;;;;10.34;100.00;99451.11;273522;1266;22386;-82
2024/04/14 00:09:20;;;;;;;24.90;17.60;;;;;;;10.21;99.97;99441.89;271896;1260;22556;-83
2024/04/14 00:15:21;;;;;;;25.80;18.60;;;;;;;10.10;100.00;99437.99;272192;1266;22457;-82
2024/04/14 00:21:22;;;;;;;28.20;20.30;;;;;;;10.05;100.00;99436.69;273728;1266;22292;-81
2024/04/14 00:27:43;;;;;;;27.60;19.90;;;;;;;9.99;100.00;99427.33;273667;1259;24040;-81
2024/04/14 00:33:44;;;;;;;31.60;19.60;;;;;;;9.95;100.00;99421.79;273726;1266;23221;-81
2024/04/14 00:40:06;;;;;;;31.30;20.20;;;;;;;9.93;100.00;99409.18;273534;1266;22487;-81
2024/04/14 00:46:07;;;;;;;26.90;18.10;;;;;;;9.89;100.00;99397.20;273495;1266;23121;-81
2024/04/14 00:52:09;;;;;;;24.30;17.40;;;;;;;9.82;100.00;99387.38;273398;1266;27629;-81
2024/04/14 00:58:31;;;;;;;22.60;17.60;;;;;;;9.71;100.00;99384.58;272457;1266;22558;-81
2024/04/14 01:04:32;;;;;;;24.40;17.90;;;;;;;9.63;100.00;99376.67;273720;1266;23642;-82
2024/04/14 01:10:36;;;;;;;24.60;19.00;;;;;;;9.61;100.00;99361.48;272768;1266;22679;-81
2024/04/14 01:16:39;;;;;;;27.60;17.80;;;;;;;9.62;100.00;99354.14;273617;1266;23139;-81
2024/04/14 01:23:00;;;;;;;22.40;17.10;;;;;;;9.59;100.00;99346.98;273705;1266;22354;-81
2024/04/14 01:29:02;;;;;;;22.10;15.40;;;;;;;9.51;100.00;99339.35;273478;1266;22308;-83
2024/04/14 01:35:05;;;;;;;27.40;17.50;;;;;;;9.48;100.00;99344.42;273544;1266;22395;-83
2024/04/14 01:41:46;;;;;;;23.80;18.20;;;;;;;9.46;100.00;99341.88;273524;1263;22363;-82
2024/04/14 01:48:09;;;;;;;28.20;19.30;;;;;;;9.46;100.00;99339.48;273733;1254;22319;-81
2024/04/14 01:54:12;;;;;;;26.10;18.20;;;;;;;9.41;100.00;99336.80;273551;1266;23016;-82
2024/04/14 02:00:13;;;;;;;29.60;19.80;;;;;;;9.31;100.00;99338.38;273714;1266;22243;-82
2024/04/14 02:06:14;;;;;;;27.00;18.50;;;;;;;9.31;100.00;99331.50;273760;1263;22636;-81
2024/04/14 02:12:16;;;;;;;24.60;19.20;;;;;;;9.30;100.00;99331.73;273671;1266;22502;-82
2024/04/14 02:18:37;;;;;;;30.00;20.10;;;;;;;9.29;100.00;99327.94;274124;1266;23442;-82
2024/04/14 02:24:38;;;;;;;26.60;18.60;;;;;;;9.25;100.00;99318.41;269529;1266;5363137;-81
2024/04/14 02:31:20;;;;;;;27.00;18.70;;;;;;;9.24;100.00;99310.66;273665;1266;22497;-81
2024/04/14 02:37:24;;;;;;;25.30;18.70;;;;;;;9.22;100.00;99301.34;273614;1266;22499;-82
2024/04/14 02:43:48;;;;;;;24.90;17.50;;;;;;;9.16;100.00;99291.37;273742;1266;22379;-81
2024/04/14 02:50:13;;;;;;;23.60;19.70;;;;;;;9.12;100.00;99283.88;273641;1266;22258;-81
2024/04/14 02:56:14;;;;;;;23.60;18.30;;;;;;;9.11;100.00;99280.59;273737;1266;22976;-81
2024/04/14 03:02:15;;;;;;;21.20;18.10;;;;;;;9.08;100.00;99275.67;274005;1266;22280;-82
2024/04/14 03:08:16;;;;;;;27.20;17.20;;;;;;;9.03;100.00;99272.45;273612;1266;22404;-81
2024/04/14 03:14:39;;;;;;;26.80;18.40;;;;;;;9.04;100.00;99265.61;273676;1266;22406;-81
2024/04/14 03:20:40;;;;;;;28.90;19.40;;;;;;;9.04;100.00;99264.98;273748;1260;22487;-81
2024/04/14 03:26:41;;;;;;;26.20;17.60;;;;;;;9.01;100.00;99258.52;272872;1266;23202;-82
2024/04/14 03:32:42;;;;;;;27.60;18.20;;;;;;;9.00;100.00;99251.86;271471;1266;23702;-82
2024/04/14 03:38:44;;;;;;;28.90;17.70;;;;;;;8.99;100.00;99241.30;272346;1266;22610;-82
2024/04/14 03:44:53;;;;;;;23.60;17.20;;;;;;;8.96;100.00;99237.17;272618;1266;22455;-81
2024/04/14 03:50:57;;;;;;;22.60;16.30;;;;;;;8.93;100.00;99236.11;273725;1263;22532;-82
2024/04/14 03:57:01;;;;;;;23.80;17.80;;;;;;;8.94;100.00;99236.12;273801;1266;22400;-84
2024/04/14 04:03:25;;;;;;;20.00;15.40;;;;;;;8.91;100.00;99225.55;273715;1266;22312;-85
2024/04/14 04:09:26;;;;;;;21.50;16.30;;;;;;;8.86;100.00;99220.13;273669;1265;23745;-82
2024/04/14 04:15:28;;;;;;;23.00;16.00;;;;;;;8.84;100.00;99214.46;273909;1266;22285;-86
2024/04/14 04:21:29;;;;;;;20.70;15.40;;;;;;;8.89;100.00;99205.52;273692;1266;22255;-83
2024/04/14 04:27:30;;;;;;;21.50;16.20;;;;;;;8.95;100.00;99198.95;272318;1263;22546;-81
2024/04/14 04:33:31;;;;;;;20.60;15.60;;;;;;;9.01;100.00;99190.33;272397;1266;22307;-82
2024/04/14 04:39:32;;;;;;;22.40;17.30;;;;;;;9.09;100.00;99178.71;272680;1263;22467;-82
2024/04/14 04:45:33;;;;;;;26.70;19.50;;;;;;;9.14;100.00;99168.04;273626;1260;22336;-82
2024/04/14 04:51:34;;;;;;;24.70;18.10;;;;;;;9.22;100.00;99163.20;272809;1263;22888;-82
2024/04/14 04:57:35;;;;;;;23.00;15.80;;;;;;;9.40;100.00;99162.36;272078;1266;22657;-84
2024/04/14 05:03:45;;;;;;;23.00;16.60;;;;;;;9.59;100.00;99152.39;273651;1260;23513;-83
2024/04/14 05:09:52;;;;;;;23.50;18.20;;;;;;;9.76;100.00;99144.41;273542;1266;24256;-82
2024/04/14 05:16:32;;;;;;;21.10;16.30;;;;;;;9.96;100.00;99141.07;273511;1266;22434;-82
2024/04/14 05:22:33;;;;;;;18.30;15.70;;;;;;;10.17;100.00;99130.79;273885;1266;22451;-83
2024/04/14 05:28:34;;;;;;;20.10;15.50;;;;;;;10.37;100.00;99123.49;273611;1266;22443;-83
2024/04/14 05:34:35;;;;;;;20.10;15.20;;;;;;;10.57;100.00;99113.98;273515;1266;23238;-83
2024/04/14 05:40:38;;;;;;;21.80;16.10;;;;;;;10.81;100.00;99112.10;272394;1266;22563;-81
2024/04/14 05:46:39;;;;;;;26.40;17.50;;;;;;;11.09;100.00;99113.89;273167;1251;22592;-84
2024/04/14 05:52:40;;;;;;;28.30;17.40;;;;;;;11.42;100.00;99113.22;273420;1266;22422;-81
2024/04/14 05:58:41;;;;;;;25.40;17.70;;;;;;;11.69;100.00;99106.20;273699;1266;22364;-81
2024/04/14 06:04:42;;;;;;;29.50;17.90;;;;;;;11.91;100.00;99100.58;273746;1266;22363;-82
2024/04/14 06:11:03;;;;;;;27.80;18.30;;;;;;;12.29;100.00;99099.51;273575;1266;22355;-83
2024/04/14 06:17:08;;;;;;;23.80;16.90;;;;;;;12.69;100.00;99097.05;273750;1266;23025;-83
2024/04/14 06:23:09;;;;;;;27.10;17.20;;;;;;;12.96;100.00;99091.42;273783;1266;23610;-82
2024/04/14 06:29:10;;;;;;;24.90;16.30;;;;;;;13.28;100.00;99097.56;272952;1260;22544;-83
2024/04/14 06:35:11;;;;;;;22.80;15.20;;;;;;;13.60;100.00;99103.98;273591;1266;22908;-83
2024/04/14 06:41:12;;;;;;;21.60;13.50;;;;;;;13.94;100.00;99094.94;273894;1266;22426;-83
2024/04/14 06:47:42;;;;;;;21.20;14.80;;;;;;;14.32;100.00;99087.90;273721;1266;22231;-83
2024/04/14 06:54:08;;;;;;;16.20;11.70;;;;;;;14.73;100.00;99093.98;273499;1266;22287;-83
2024/04/14 07:00:10;;;;;;;15.60;10.50;;;;;;;15.10;100.00;99091.62;273708;1256;22985;-83
2024/04/14 07:06:31;;;;;;;14.00;9.30;;;;;;;15.46;100.00;99088.65;273735;1260;22286;-84
2024/04/14 07:12:34;;;;;;;13.30;7.00;;;;;;;15.92;100.00;99094.75;274111;1267;22217;-84
2024/04/14 07:18:35;;;;;;;10.30;7.10;;;;;;;16.39;100.00;99095.27;273617;1266;22499;-82
2024/04/14 07:25:17;;;;;;;13.20;7.20;;;;;;;16.75;100.00;99093.68;273603;1266;22397;-83
2024/04/14 07:31:58;;;;;;;13.40;6.70;;;;;;;17.08;100.00;99087.89;272526;1272;23347;-83
2024/04/14 07:38:40;;;;;;;8.30;6.20;;;;;;;17.35;100.00;99092.66;272545;1270;22397;-83
2024/04/14 07:45:40;;;;;;;9.10;5.80;;;;;;;17.61;99.43;99098.61;272408;1270;22552;-83
2024/04/14 07:51:42;;;;;;;9.90;6.00;;;;;;;17.91;99.35;99089.67;271843;1271;22380;-82
2024/04/14 07:57:51;;;;;;;10.00;6.00;;;;;;;18.17;99.99;99086.37;272215;1272;22276;-83
2024/04/14 08:03:52;;;;;;;8.10;5.90;;;;;;;18.38;99.64;99086.23;272997;1266;23645;-83
2024/04/14 08:10:34;;;;;;;10.80;5.70;;;;;;;18.62;99.18;99082.67;273525;1266;22325;-84
2024/04/14 08:16:42;;;;;;;9.60;5.30;;;;;;;19.10;98.12;99080.11;273459;1266;22433;-84
2024/04/14 08:22:43;;;;;;;14.70;6.00;;;;;;;19.62;95.77;99078.69;273494;1266;22363;-84
2024/04/14 08:28:58;;;;;;;8.40;4.80;;;;;;;20.03;93.24;99079.27;273432;1266;22496;-83
2024/04/14 08:34:59;;;;;;;8.00;4.70;;;;;;;20.26;91.80;99083.67;273530;1266;23211;-84
2024/04/14 08:41:00;;;;;;;7.40;4.40;;;;;;;20.52;88.45;99085.05;273554;1266;23631;-84
2024/04/14 08:47:06;;;;;;;8.20;4.70;;;;;;;20.90;86.53;99080.24;273547;1266;22394;-84
2024/04/14 08:53:09;;;;;;;5.50;3.50;;;;;;;21.22;84.00;99067.75;272774;1267;22401;-83
2024/04/14 08:59:34;;;;;;;4.50;2.60;;;;;;;21.68;84.29;99059.15;273177;1266;23843;-84
2024/04/14 09:05:35;;;;;;;2.80;2.20;;;;;;;22.10;80.46;99053.52;273387;1266;22531;-85
2024/04/14 09:11:36;;;;;;;8.00;1.70;;;;;;;22.59;79.47;99049.64;273374;1266;22446;-83
2024/04/14 09:17:39;;;;;;;6.20;1.70;;;;;;;23.21;77.08;99035.96;273284;1266;22898;-84
2024/04/14 09:23:59;;;;;;;3.50;1.30;;;;;;;23.81;72.86;99028.52;273269;1267;23492;-84
2024/04/14 09:30:13;;;;;;;6.80;2.30;;;;;;;24.54;69.53;99031.52;273380;1266;22949;-83
2024/04/14 09:36:14;;;;;;;6.00;1.60;;;;;;;25.12;66.15;99028.55;273331;1266;23500;-85
2024/04/14 09:42:18;;;;;;;5.70;1.70;;;;;;;25.68;64.17;99033.95;273368;1266;23574;-81
2024/04/14 09:48:20;;;;;;;9.00;1.70;;;;;;;26.19;60.00;99034.27;273606;1267;22500;-83
2024/04/14 09:54:22;;;;;;;6.20;1.50;;;;;;;26.73;58.42;99032.21;273872;1269;23038;-81
2024/04/14 10:00:38;;;;;;;4.20;1.40;;;;;;;27.23;57.72;99024.77;273306;1266;22404;-83
2024/04/14 10:06:40;;;;;;;5.60;1.40;;;;;;;27.71;53.73;99017.09;273357;1256;22358;-84
2024/04/14 10:12:41;;;;;;;6.80;1.90;;;;;;;27.80;51.62;99016.83;273176;1266;22460;-82
2024/04/14 10:18:47;;;;;;;3.30;1.50;;;;;;;28.10;50.28;99015.29;273367;1266;23564;-83
2024/04/14 10:25:24;;;;;;;3.30;1.50;;;;;;;28.18;49.34;99012.27;273298;1266;22560;-83
2024/04/14 10:31:42;;;;;;;4.20;1.50;;;;;;;28.26;49.41;99009.49;273350;1266;22247;-83
2024/04/14 10:37:54;;;;;;;2.50;1.30;;;;;;;28.54;46.48;99008.14;273573;1267;22413;-83
2024/04/14 10:43:57;;;;;;;6.00;1.60;;;;;;;28.20;45.18;99007.33;273890;1267;22414;-84
2024/04/14 10:49:58;;;;;;;3.10;2.00;;;;;;;27.76;44.72;98995.13;273749;1267;22281;-84
2024/04/14 10:56:02;;;;;;;4.80;1.90;;;;;;;27.56;44.58;98995.14;273326;1267;22418;-85
2024/04/14 11:02:22;;;;;;;2.90;1.50;;;;;;;27.47;43.98;98996.90;272872;1267;22407;-83
2024/04/14 11:08:24;;;;;;;6.40;1.50;;;;;;;27.56;43.97;98995.87;273235;1266;22563;-84
2024/04/14 11:14:25;;;;;;;8.50;1.90;;;;;;;27.63;43.10;98996.52;273509;1266;22395;-84
2024/04/14 11:20:47;;;;;;;5.90;1.60;;;;;;;27.40;43.61;98996.65;273266;1266;22444;-85
2024/04/14 11:26:48;;;;;;;6.00;1.50;;;;;;;27.14;44.22;98991.02;273442;1258;23839;-85
2024/04/14 11:32:51;;;;;;;8.70;1.80;;;;;;;26.87;44.28;98993.40;273337;1264;22392;-83
2024/04/14 11:38:53;;;;;;;4.70;1.50;;;;;;;26.94;45.73;98989.90;273285;1254;22503;-83
2024/04/14 11:44:55;;;;;;;4.60;1.80;;;;;;;26.78;45.27;98991.10;273419;1266;22478;-84
2024/04/14 11:50:56;;;;;;;3.60;1.60;;;;;;;26.56;44.87;98983.70;273634;1266;23874;-82
2024/04/14 11:56:57;;;;;;;4.80;1.90;;;;;;;26.41;45.16;98982.98;273341;1266;22583;-83
2024/04/14 12:02:58;;;;;;;5.90;2.00;;;;;;;26.20;45.29;98982.02;273058;1264;22431;-82
2024/04/14 12:08:59;;;;;;;4.60;1.40;;;;;;;25.96;45.07;98983.56;273307;1266;22388;-82
2024/04/14 12:15:05;;;;;;;3.70;1.40;;;;;;;25.62;45.04;98990.96;273456;1266;22342;-83
2024/04/14 12:21:18;;;;;;;4.40;2.00;;;;;;;25.28;45.38;98989.91;273114;1267;23146;-82
2024/04/14 12:27:41;;;;;;;7.20;1.90;;;;;;;25.28;46.09;98986.80;273232;1266;22705;-81
2024/04/14 12:33:42;;;;;;;6.30;2.00;;;;;;;25.36;47.67;98980.59;273096;1266;22477;-82
2024/04/14 12:40:00;;;;;;;7.90;1.80;;;;;;;25.24;47.03;98983.23;273619;1264;22262;-83
2024/04/14 12:46:01;;;;;;;4.60;1.90;;;;;;;25.02;47.60;98976.30;273271;1266;22421;-83
2024/04/14 12:52:03;;;;;;;4.70;1.50;;;;;;;24.86;47.83;98976.80;273026;1267;22259;-83
2024/04/14 12:58:04;;;;;;;3.20;1.60;;;;;;;24.77;48.80;98967.73;273297;1266;23194;-84
2024/04/14 13:04:35;;;;;;;3.30;1.70;;;;;;;24.58;48.82;98961.88;273337;1266;22391;-82
2024/04/14 13:10:39;;;;;;;4.10;1.50;;;;;;;24.36;48.57;98955.90;273387;1266;22411;-85
2024/04/14 13:16:41;;;;;;;3.40;1.80;;;;;;;24.19;49.79;98952.67;272653;1264;22415;-82
2024/04/14 13:22:42;;;;;;;3.70;1.80;;;;;;;24.03;50.22;98950.69;273517;1265;22340;-83
2024/04/14 13:28:44;;;;;;;2.80;1.60;;;;;;;23.87;50.93;98948.17;273000;1266;22449;-82
2024/04/14 13:34:53;;;;;;;4.90;1.60;;;;;;;23.69;51.36;98943.75;273414;1266;22390;-83
2024/04/14 13:41:15;;;;;;;7.20;2.20;;;;;;;23.54;52.67;98943.69;273162;1266;22528;-82
2024/04/14 13:47:18;;;;;;;4.40;2.10;;;;;;;23.38;53.12;98933.02;272750;1266;23505;-84
2024/04/14 13:53:19;;;;;;;3.20;2.10;;;;;;;23.28;53.26;98925.76;272922;1263;23526;-84
2024/04/14 13:59:20;;;;;;;3.70;1.90;;;;;;;23.15;53.08;98922.27;273347;1266;22545;-82
2024/04/14 14:05:21;;;;;;;3.00;2.00;;;;;;;23.02;53.47;98903.70;273389;1266;22393;-83
2024/04/14 14:11:22;;;;;;;3.70;2.10;;;;;;;22.94;53.40;98887.90;273123;1266;22509;-83
2024/04/14 14:17:43;;;;;;;3.10;2.00;;;;;;;22.85;53.18;98878.50;273243;1266;22291;-83
2024/04/14 14:23:44;;;;;;;4.20;2.10;;;;;;;22.83;53.66;98866.71;273146;1266;208275;-83
2024/04/14 14:29:45;;;;;;;5.60;2.20;;;;;;;22.65;55.62;98861.50;272505;1265;22565;-82
2024/04/14 14:42:06;;;;;;;9.00;2.30;;;;;;;22.41;56.24;98864.21;273641;1266;22342;-82
2024/04/14 14:48:07;;;;;;;6.20;1.90;;;;;;;22.31;56.17;98859.84;273386;1266;22491;-81
2024/04/14 14:54:09;;;;;;;3.90;1.90;;;;;;;22.30;55.31;98854.23;273183;1266;22406;-84
2024/04/14 15:00:12;;;;;;;6.60;2.30;;;;;;;22.30;55.33;98845.29;273528;1263;22520;-83
2024/04/14 15:06:30;;;;;;;3.90;1.80;;;;;;;22.23;54.84;98843.79;273466;1266;23153;-82
2024/04/14 15:12:32;;;;;;;4.70;1.90;;;;;;;22.13;54.31;98843.48;273522;1266;22477;-84
2024/04/14 15:18:34;;;;;;;4.40;1.90;;;;;;;22.02;54.41;98842.54;272810;1266;22327;-83
2024/04/14 15:24:38;;;;;;;4.10;1.50;;;;;;;21.99;54.34;98853.89;273622;1266;22405;-83
2024/04/14 15:30:56;;;;;;;9.40;2.10;;;;;;;22.01;54.47;98860.43;273401;1266;22284;-82
2024/04/14 15:36:59;;;;;;;4.50;2.20;;;;;;;21.93;54.27;98857.19;273299;1266;22453;-84
2024/04/14 15:43:03;;;;;;;5.50;2.20;;;;;;;21.83;54.59;98862.27;273875;1260;22262;-83
2024/04/14 15:49:04;;;;;;;3.10;1.90;;;;;;;21.71;54.85;98862.10;273331;1266;22510;-84
2024/04/14 15:55:26;;;;;;;3.00;2.00;;;;;;;21.63;55.12;98860.02;272637;1266;22408;-83
2024/04/14 16:02:07;;;;;;;6.50;2.10;;;;;;;21.52;55.20;98859.99;273688;1266;23409;-82
2024/04/14 16:08:34;;;;;;;7.30;2.90;;;;;;;21.13;57.82;98878.34;273910;1266;22372;-83
2024/04/14 16:14:38;;;;;;;13.30;3.80;;;;;;;20.26;62.24;98905.42;273685;1266;23518;-83
2024/04/14 16:20:42;;;;;;;7.40;2.90;;;;;;;19.38;66.39;98919.73;273509;1266;22494;-82
2024/04/14 16:26:47;;;;;;;8.80;3.30;;;;;;;18.88;70.11;98898.14;273074;1258;22565;-82
2024/04/14 16:32:49;;;;;;;5.10;3.30;;;;;;;18.49;71.39;98881.61;272258;1266;22847;-82
2024/04/14 16:38:50;;;;;;;5.70;3.30;;;;;;;18.24;73.00;98881.90;273039;1264;22548;-84
2024/04/14 16:44:51;;;;;;;9.40;3.70;;;;;;;17.92;73.63;98877.90;273301;1267;22477;-82
2024/04/14 16:50:52;;;;;;;8.40;4.00;;;;;;;17.75;76.20;98876.83;273527;1266;23543;-84
2024/04/14 16:56:53;;;;;;;5.70;3.70;;;;;;;17.74;78.64;98874.79;273780;1266;22425;-84
2024/04/14 17:03:36;;;;;;;7.40;4.30;;;;;;;17.77;80.85;98876.63;273766;1263;23101;-85
2024/04/14 17:09:48;;;;;;;8.60;4.60;;;;;;;17.66;82.64;98887.90;273792;1266;22518;-82
2024/04/14 17:15:51;;;;;;;11.30;5.60;;;;;;;17.55;83.57;98897.36;273963;1263;22611;-82
2024/04/14 17:22:41;;;;;;;7.90;5.50;;;;;;;17.37;84.12;98901.71;273472;1266;22481;-85
2024/04/14 17:28:59;;;;;;;13.10;5.60;;;;;;;17.21;85.39;98908.06;273655;1266;22517;-82
2024/04/14 17:35:22;;;;;;;8.80;5.20;;;;;;;17.04;86.28;98914.50;273353;1267;22326;-84
2024/04/14 17:41:26;;;;;;;7.30;5.00;;;;;;;16.96;88.31;98917.56;273495;1266;22422;-84
2024/04/14 17:48:10;;;;;;;7.60;5.60;;;;;;;16.95;89.67;98930.15;273983;1274;22446;-83
2024/04/14 17:54:26;;;;;;;12.40;6.30;;;;;;;16.85;90.61;98934.00;273333;1266;23463;-83
2024/04/14 18:00:27;;;;;;;11.20;6.00;;;;;;;16.77;91.25;98936.48;273104;1266;22316;-83
2024/04/14 18:06:29;;;;;;;8.10;6.20;;;;;;;16.62;91.43;98942.70;272632;1266;22315;-83
2024/04/14 18:12:30;;;;;;;13.10;6.50;;;;;;;16.33;91.57;98946.45;273649;1266;22576;-83
2024/04/14 18:18:31;;;;;;;13.70;7.70;;;;;;;16.18;93.07;98952.57;273615;1266;23713;-85
2024/04/14 18:24:32;;;;;;;13.70;7.80;;;;;;;16.07;93.84;98951.69;265519;1266;10001694;-83
2024/04/14 18:30:35;;;;;;;12.90;7.70;;;;;;;15.92;94.30;98946.95;272735;1266;23934;-83
2024/04/14 18:36:51;;;;;;;14.80;7.70;;;;;;;15.66;94.26;98964.00;272695;1266;23503;-84
2024/04/14 18:42:52;;;;;;;11.10;7.70;;;;;;;15.47;95.84;98996.44;273019;1266;23656;-84
2024/04/14 18:48:53;;;;;;;16.10;9.00;;;;;;;15.46;96.96;99009.76;273216;1266;23729;-84
2024/04/14 18:54:55;;;;;;;16.20;9.00;;;;;;;15.48;97.25;98997.05;272872;1266;22386;-83
2024/04/14 19:01:04;;;;;;;12.10;8.60;;;;;;;15.46;97.75;98992.11;273467;1267;22297;-83
2024/04/14 19:07:06;;;;;;;9.00;6.80;;;;;;;15.34;98.52;98990.21;273489;1266;23003;-83
2024/04/14 19:13:27;;;;;;;11.90;8.60;;;;;;;15.21;98.87;98993.77;273310;1267;23656;-84
2024/04/14 19:19:29;;;;;;;13.20;8.30;;;;;;;15.04;99.27;99004.99;273340;1266;22519;-83
2024/04/14 19:25:30;;;;;;;12.50;7.90;;;;;;;14.92;99.88;99014.29;272954;1266;22666;-84
2024/04/14 19:31:53;;;;;;;11.80;8.30;;;;;;;14.79;99.68;99006.42;272814;1271;22439;-83
2024/04/14 19:38:35;;;;;;;13.90;6.90;;;;;;;14.57;98.70;99005.27;272007;1269;22323;-84
2024/04/14 19:44:59;;;;;;;12.10;6.50;;;;;;;14.49;98.94;98993.19;272550;1270;22409;-84
2024/04/14 19:51:39;;;;;;;11.60;7.40;;;;;;;14.45;99.17;98984.23;272473;1269;22304;-83
2024/04/14 19:58:20;;;;;;;11.90;6.80;;;;;;;14.43;99.30;98978.52;272463;1270;22390;-83
2024/04/14 20:04:21;;;;;;;13.40;8.10;;;;;;;14.31;99.56;98980.59;272436;1269;22417;-83
2024/04/14 20:10:23;;;;;;;8.10;7.10;;;;;;;14.24;100.00;98971.71;273272;1263;22402;-82
2024/04/14 20:16:34;;;;;;;12.80;7.70;;;;;;;14.30;100.00;98974.87;273278;1266;22927;-83
2024/04/14 20:22:36;;;;;;;10.50;8.00;;;;;;;14.35;100.00;98992.14;272443;1266;24226;-84
2024/04/14 20:28:58;;;;;;;12.50;9.40;;;;;;;14.35;100.00;99024.57;272030;1267;22528;-83
2024/04/14 20:35:40;;;;;;;16.80;10.90;;;;;;;14.27;100.00;99023.96;273523;1266;23198;-83
2024/04/14 20:42:03;;;;;;;16.30;9.20;;;;;;;14.28;100.00;99006.48;273597;1266;22223;-83
2024/04/14 20:48:05;;;;;;;15.20;9.40;;;;;;;14.34;100.00;99005.20;273484;1256;23116;-83
2024/04/14 20:54:47;;;;;;;13.70;9.10;;;;;;;14.40;100.00;99001.96;273576;1268;23427;-83
2024/04/14 21:00:49;;;;;;;14.00;10.00;;;;;;;14.38;100.00;99001.58;272330;1263;24348;-83
2024/04/14 21:07:16;;;;;;;12.90;9.10;;;;;;;14.27;100.00;99010.73;273476;1266;23809;-84
2024/04/14 21:13:20;;;;;;;14.50;9.90;;;;;;;14.10;100.00;99017.38;273327;1266;22559;-88
2024/04/14 21:20:04;;;;;;;17.00;11.40;;;;;;;14.00;100.00;99018.57;273428;1266;23318;-83
2024/04/14 21:26:30;;;;;;;16.30;10.30;;;;;;;13.88;100.00;99027.01;273532;1266;22295;-86
2024/04/14 21:32:31;;;;;;;24.70;12.70;;;;;;;13.85;100.00;99031.50;273266;1263;23136;-83
2024/04/14 21:39:16;;;;;;;16.60;10.20;;;;;;;13.81;100.00;99025.84;273800;1272;22401;-83
2024/04/14 21:45:25;;;;;;;15.00;10.10;;;;;;;13.73;100.00;99016.73;273702;1263;22368;-83
2024/04/14 21:51:36;;;;;;;16.90;11.40;;;;;;;13.74;100.00;99021.84;273947;1267;22404;-83
2024/04/14 21:57:40;;;;;;;17.20;10.60;;;;;;;13.77;100.00;99020.05;272551;1266;22409;-89
2024/04/14 22:03:42;;;;;;;11.60;9.00;;;;;;;13.80;100.00;99017.28;273380;1266;24242;-84
2024/04/14 22:10:05;;;;;;;17.90;10.00;;;;;;;13.75;100.00;99023.57;273878;1272;22397;-83
2024/04/14 22:16:27;;;;;;;13.20;10.20;;;;;;;13.66;100.00;99016.89;273638;1267;22367;-83
2024/04/14 22:22:29;;;;;;;14.50;10.60;;;;;;;13.65;100.00;99012.82;273400;1266;22627;-84
2024/04/14 22:28:30;;;;;;;15.30;9.90;;;;;;;13.69;100.00;99014.54;272579;1266;22261;-84
2024/04/14 22:34:32;;;;;;;14.70;9.40;;;;;;;13.74;100.00;99018.70;273479;1266;22402;-84
2024/04/14 22:40:41;;;;;;;12.90;8.40;;;;;;;13.75;100.00;99012.17;273559;1266;22456;-84
2024/04/14 22:46:44;;;;;;;13.60;8.90;;;;;;;13.77;100.00;99014.23;274202;1269;22380;-84
2024/04/14 22:52:46;;;;;;;14.60;8.30;;;;;;;13.73;100.00;99000.30;273641;1266;23405;-83
2024/04/14 22:59:27;;;;;;;18.50;9.90;;;;;;;13.71;100.00;98991.81;272187;1266;23690;-84
2024/04/14 23:06:03;;;;;;;11.10;8.00;;;;;;;13.64;100.00;98987.66;272904;1266;22414;-84
2024/04/14 23:12:04;;;;;;;8.80;7.10;;;;;;;13.53;100.00;98981.87;272769;1266;22400;-84
2024/04/14 23:18:18;;;;;;;9.50;6.30;;;;;;;13.50;100.00;98977.01;273496;1266;22278;-84
2024/04/14 23:24:40;;;;;;;9.90;6.30;;;;;;;13.43;100.00;98970.33;273698;1266;23492;-84
2024/04/14 23:30:42;;;;;;;7.00;5.10;;;;;;;13.39;100.00;98963.34;273453;1267;22499;-85
2024/04/14 23:36:43;;;;;;;7.70;5.00;;;;;;;13.39;100.00;98956.36;273255;1266;23394;-83
2024/04/14 23:42:59;;;;;;;8.40;5.40;;;;;;;13.34;100.00;98953.36;273499;1266;22418;-84
2024/04/14 23:49:15;;;;;;;9.60;5.30;;;;;;;13.20;100.00;98949.91;273857;1266;22245;-82
2024/04/14 23:55:19;;;;;;;9.10;6.20;;;;;;;13.13;100.00;98941.04;273372;1266;22537;-84
